Time;durP1;ratioP1;P1;durP2;ratioP2;P2;SDS_P1;SDS_P2;PMS_P1;PMS_P2;Temp;Humidity;BMP_temperature;BMP_pressure;BME280_temperature;BME280_humidity;BME280_pressure;Samples;Min_cycle;Max_cycle;Signal;HPM_P1;HPM_P2
2021/05/10 00:00:50;;;;;;;10.65;9.65;;;18.40;69.70;;;;;;5053375;28;20053;-76
2021/05/10 00:03:16;;;;;;;9.00;8.10;;;18.40;69.90;;;;;;5053731;28;20075;-84
2021/05/10 00:05:42;;;;;;;8.73;7.82;;;18.30;70.00;;;;;;5036624;28;20033;-78
2021/05/10 00:08:08;;;;;;;9.82;8.45;;;18.30;70.20;;;;;;5053062;28;20136;-79
2021/05/10 00:10:35;;;;;;;10.07;9.02;;;18.20;70.30;;;;;;5053381;28;20080;-77
2021/05/10 00:13:02;;;;;;;8.95;8.07;;;18.20;70.30;;;;;;5052656;28;20068;-77
2021/05/10 00:15:28;;;;;;;9.20;8.30;;;18.20;70.40;;;;;;5051231;28;20052;-77
2021/05/10 00:18:01;;;;;;;9.02;8.15;;;18.20;70.50;;;;;;5035603;28;20060;-76
2021/05/10 00:20:33;;;;;;;10.05;8.82;;;18.10;70.60;;;;;;5052806;28;20425;-76
2021/05/10 00:23:00;;;;;;;10.38;8.75;;;18.10;70.60;;;;;;5056731;28;20507;-76
2021/05/10 00:25:26;;;;;;;9.85;8.77;;;18.10;70.60;;;;;;5055493;28;20098;-77
2021/05/10 00:27:52;;;;;;;10.38;8.68;;;18.10;70.70;;;;;;5056073;28;20041;-77
2021/05/10 00:30:19;;;;;;;10.10;9.10;;;18.00;70.70;;;;;;5057231;28;20060;-83
2021/05/10 00:32:45;;;;;;;10.70;9.07;;;18.00;70.80;;;;;;5056737;28;20055;-76
2021/05/10 00:35:14;;;;;;;9.13;7.85;;;18.00;70.90;;;;;;5071777;28;20045;-76
2021/05/10 00:37:40;;;;;;;9.93;8.93;;;18.00;70.90;;;;;;5054869;28;20128;-76
2021/05/10 00:40:07;;;;;;;9.48;8.57;;;18.00;71.00;;;;;;5056800;28;20048;-76
2021/05/10 00:42:33;;;;;;;9.30;8.50;;;17.90;70.90;;;;;;5055042;28;20086;-76
2021/05/10 00:44:58;;;;;;;8.73;7.88;;;17.90;70.90;;;;;;5055506;28;20436;-77
2021/05/10 00:47:25;;;;;;;10.40;9.30;;;17.90;70.90;;;;;;5056807;28;20056;-83
2021/05/10 00:49:51;;;;;;;11.20;9.13;;;17.90;70.90;;;;;;5055760;28;20045;-77
2021/05/10 00:52:18;;;;;;;11.75;9.55;;;17.90;70.90;;;;;;5071471;28;20556;-75
2021/05/10 00:54:43;;;;;;;10.70;9.70;;;17.80;71.00;;;;;;5054587;28;20115;-76
2021/05/10 00:57:09;;;;;;;10.02;9.05;;;17.80;71.10;;;;;;5054548;28;20071;-76
2021/05/10 00:59:38;;;;;;;10.10;9.00;;;17.90;71.20;;;;;;5054993;28;20037;-76
2021/05/10 01:02:04;;;;;;;11.02;10.02;;;17.80;71.30;;;;;;5039345;28;20074;-76
2021/05/10 01:04:30;;;;;;;10.60;9.55;;;17.80;71.40;;;;;;5038547;28;20095;-75
2021/05/10 01:06:57;;;;;;;9.40;8.52;;;17.80;71.40;;;;;;5055049;28;20196;-75
2021/05/10 01:09:23;;;;;;;11.23;9.80;;;17.70;71.40;;;;;;5054551;28;20426;-75
2021/05/10 01:11:50;;;;;;;13.10;9.68;;;17.70;71.40;;;;;;5054508;28;20045;-77
2021/05/10 01:14:19;;;;;;;10.05;8.98;;;17.70;71.40;;;;;;5038022;28;20041;-76
2021/05/10 01:16:47;;;;;;;10.30;9.15;;;17.70;71.50;;;;;;5054531;28;20128;-76
2021/05/10 01:19:13;;;;;;;10.77;9.77;;;17.70;71.70;;;;;;5054439;28;20424;-75
2021/05/10 01:21:39;;;;;;;10.80;9.40;;;17.60;71.70;;;;;;5037454;28;20045;-75
2021/05/10 01:24:05;;;;;;;10.65;9.55;;;17.70;71.70;;;;;;5038067;28;20041;-76
2021/05/10 01:26:31;;;;;;;11.50;10.40;;;17.60;71.70;;;;;;5053918;28;20098;-78
2021/05/10 01:28:57;;;;;;;11.48;10.20;;;17.60;71.80;;;;;;5054575;28;20044;-76
2021/05/10 01:31:24;;;;;;;10.30;9.30;;;17.60;71.90;;;;;;5054313;28;20132;-77
2021/05/10 01:33:50;;;;;;;11.50;10.30;;;17.60;71.80;;;;;;5054174;28;20357;-76
2021/05/10 01:36:15;;;;;;;11.32;10.20;;;17.60;71.90;;;;;;5055253;28;20052;-77
2021/05/10 01:38:41;;;;;;;11.43;10.32;;;17.60;72.00;;;;;;5053099;28;20061;-75
2021/05/10 01:41:07;;;;;;;11.57;10.48;;;17.50;71.90;;;;;;5053970;28;20075;-75
2021/05/10 01:43:33;;;;;;;11.10;10.00;;;17.50;72.00;;;;;;5053333;28;20382;-81
2021/05/10 01:45:59;;;;;;;11.68;10.63;;;17.50;72.10;;;;;;5054988;28;20049;-76
2021/05/10 01:48:25;;;;;;;11.13;10.02;;;17.50;72.20;;;;;;5055117;28;20113;-76
2021/05/10 01:50:50;;;;;;;9.68;8.68;;;17.50;72.10;;;;;;5054196;28;20060;-76
2021/05/10 01:53:16;;;;;;;10.30;9.30;;;17.40;72.10;;;;;;5053158;28;20052;-76
2021/05/10 01:55:42;;;;;;;11.68;10.38;;;17.40;72.10;;;;;;5054630;28;20124;-77
2021/05/10 01:58:08;;;;;;;10.70;9.65;;;17.40;72.20;;;;;;5037263;28;20474;-78
2021/05/10 02:00:38;;;;;;;11.88;10.60;;;17.40;72.20;;;;;;5053219;28;20045;-81
2021/05/10 02:03:05;;;;;;;11.30;10.20;;;17.40;72.30;;;;;;5052447;28;20045;-76
2021/05/10 02:05:31;;;;;;;10.50;9.40;;;17.40;72.30;;;;;;5053994;28;20045;-75
2021/05/10 02:07:58;;;;;;;11.65;10.45;;;17.40;72.30;;;;;;5051735;28;20052;-76
2021/05/10 02:10:32;;;;;;;10.55;9.55;;;17.40;72.40;;;;;;5053114;28;20071;-76
2021/05/10 02:13:11;;;;;;;11.13;10.02;;;17.30;72.30;;;;;;5053487;28;20103;-76
2021/05/10 02:15:40;;;;;;;12.32;11.23;;;17.30;72.30;;;;;;5053371;28;20400;-84
2021/05/10 02:18:06;;;;;;;10.05;9.05;;;17.30;72.30;;;;;;5054679;28;20202;-76
2021/05/10 02:20:32;;;;;;;11.18;9.68;;;17.30;72.30;;;;;;5053463;28;20060;-75
2021/05/10 02:23:01;;;;;;;11.82;10.20;;;17.20;72.30;;;;;;5036101;28;20086;-76
2021/05/10 02:25:35;;;;;;;11.35;10.35;;;17.30;72.60;;;;;;5053162;28;20128;-76
2021/05/10 02:28:06;;;;;;;11.52;10.43;;;17.20;72.60;;;;;;5054319;28;20094;-76
2021/05/10 02:30:36;;;;;;;10.93;9.98;;;17.30;72.70;;;;;;5053339;28;20469;-75
2021/05/10 02:33:03;;;;;;;10.05;9.15;;;17.20;72.80;;;;;;5052640;28;20056;-76
2021/05/10 02:35:46;;;;;;;12.00;10.50;;;17.20;72.90;;;;;;5023639;28;20437;-77
2021/05/10 02:38:12;;;;;;;10.50;9.50;;;17.20;72.90;;;;;;5053892;28;20053;-75
2021/05/10 02:40:38;;;;;;;11.52;9.90;;;17.20;73.00;;;;;;5052681;28;20051;-82
2021/05/10 02:43:20;;;;;;;11.65;10.45;;;17.20;73.00;;;;;;5024072;28;20103;-75
2021/05/10 02:45:46;;;;;;;11.38;10.23;;;17.20;73.00;;;;;;5052428;28;20098;-77
2021/05/10 02:48:12;;;;;;;12.02;10.90;;;17.20;73.00;;;;;;5052517;28;20045;-76
2021/05/10 02:50:38;;;;;;;11.07;10.07;;;17.10;73.10;;;;;;5036399;28;20044;-76
2021/05/10 02:53:04;;;;;;;11.45;10.23;;;17.10;73.20;;;;;;5035802;28;20164;-76
2021/05/10 02:55:30;;;;;;;12.60;11.40;;;17.10;73.20;;;;;;5053852;28;20053;-75
2021/05/10 02:57:56;;;;;;;11.63;10.43;;;17.10;73.30;;;;;;5052289;28;20090;-76
2021/05/10 03:00:26;;;;;;;11.93;10.75;;;17.10;73.30;;;;;;5036075;28;20474;-75
2021/05/10 03:02:53;;;;;;;12.05;10.80;;;17.10;73.30;;;;;;5053602;28;20045;-76
2021/05/10 03:05:21;;;;;;;13.73;11.07;;;17.10;73.40;;;;;;5053471;28;20052;-76
2021/05/10 03:07:47;;;;;;;12.27;11.18;;;17.10;73.40;;;;;;5051527;28;20045;-76
2021/05/10 03:10:15;;;;;;;12.02;10.93;;;17.00;73.30;;;;;;5053180;28;20049;-75
2021/05/10 03:12:42;;;;;;;12.30;11.20;;;17.00;73.40;;;;;;5052498;28;20448;-75
2021/05/10 03:15:12;;;;;;;13.00;10.35;;;17.00;73.40;;;;;;5052300;28;20056;-75
2021/05/10 03:17:38;;;;;;;11.98;10.88;;;17.00;73.40;;;;;;5035509;28;20243;-75
2021/05/10 03:20:14;;;;;;;12.50;11.40;;;17.00;73.40;;;;;;5052925;28;20149;-74
2021/05/10 03:22:40;;;;;;;11.90;10.50;;;17.00;73.40;;;;;;5036011;28;20040;-75
2021/05/10 03:25:06;;;;;;;12.18;11.02;;;17.00;73.50;;;;;;5035223;28;20089;-75
2021/05/10 03:27:39;;;;;;;11.75;10.68;;;17.00;73.50;;;;;;5035368;28;20045;-76
2021/05/10 03:30:13;;;;;;;12.65;11.43;;;17.00;73.50;;;;;;5053581;28;20044;-75
2021/05/10 03:32:40;;;;;;;13.07;11.77;;;17.00;73.60;;;;;;5052242;28;20041;-77
2021/05/10 03:35:06;;;;;;;12.75;11.20;;;17.00;73.70;;;;;;5034345;28;20041;-74
2021/05/10 03:37:32;;;;;;;12.02;10.90;;;17.00;73.70;;;;;;5051667;28;20045;-76
2021/05/10 03:39:58;;;;;;;11.77;10.57;;;17.00;73.80;;;;;;5050874;28;20519;-75
2021/05/10 03:42:25;;;;;;;11.18;10.02;;;16.90;73.70;;;;;;5035174;28;20041;-75
2021/05/10 03:44:51;;;;;;;12.45;11.18;;;16.90;73.70;;;;;;5034750;28;20063;-81
2021/05/10 03:47:17;;;;;;;12.43;11.23;;;16.90;73.80;;;;;;5051744;28;20045;-74
2021/05/10 03:49:43;;;;;;;12.05;10.85;;;16.90;73.80;;;;;;5053002;28;20120;-76
2021/05/10 03:52:09;;;;;;;11.10;10.10;;;16.90;73.70;;;;;;5018145;28;20128;-74
2021/05/10 03:54:35;;;;;;;11.82;9.85;;;16.90;73.80;;;;;;5053288;28;20048;-75
2021/05/10 03:57:01;;;;;;;12.98;10.32;;;16.90;73.70;;;;;;5051252;28;20049;-75
2021/05/10 03:59:28;;;;;;;10.65;9.68;;;16.90;73.70;;;;;;5052604;28;20059;-75
2021/05/10 04:01:56;;;;;;;10.90;9.80;;;16.90;73.70;;;;;;5051041;28;20041;-83
2021/05/10 04:04:38;;;;;;;10.10;8.90;;;16.90;73.80;;;;;;5051841;28;20082;-74
2021/05/10 04:10:24;;;;;;;10.73;9.02;;;16.90;73.50;;;;;;5052475;28;20033;-75
2021/05/10 04:15:15;;;;;;;9.75;7.78;;;16.90;73.30;;;;;;5050978;28;20098;-74
2021/05/10 04:17:41;;;;;;;8.52;7.22;;;16.90;73.10;;;;;;5034431;28;20116;-75
2021/05/10 04:20:08;;;;;;;8.43;7.00;;;16.90;73.00;;;;;;5051337;28;20049;-76
2021/05/10 04:22:33;;;;;;;7.88;6.10;;;16.90;73.00;;;;;;5052414;28;20045;-76
2021/05/10 04:24:59;;;;;;;8.13;6.25;;;16.90;72.80;;;;;;5050514;28;20243;-77
2021/05/10 04:27:26;;;;;;;7.57;4.97;;;16.90;72.50;;;;;;5050716;28;20052;-76
2021/05/10 04:29:52;;;;;;;5.43;4.35;;;16.90;72.20;;;;;;5067467;28;20088;-76
2021/05/10 04:32:19;;;;;;;7.53;4.18;;;16.90;72.00;;;;;;5049969;28;20447;-76
2021/05/10 04:34:48;;;;;;;6.82;4.55;;;16.90;71.80;;;;;;5050360;28;20057;-75
2021/05/10 04:37:14;;;;;;;4.82;3.63;;;16.90;71.70;;;;;;5034187;28;20041;-74
2021/05/10 04:39:40;;;;;;;7.00;3.83;;;16.90;71.50;;;;;;5050847;28;20057;-76
2021/05/10 04:42:06;;;;;;;6.20;4.10;;;16.90;71.40;;;;;;5050151;28;20091;-76
2021/05/10 04:44:33;;;;;;;6.43;4.20;;;16.90;71.20;;;;;;5067139;28;20049;-76
2021/05/10 04:46:59;;;;;;;6.40;4.13;;;16.90;70.90;;;;;;5034033;28;20041;-82
2021/05/10 04:49:25;;;;;;;7.57;3.85;;;16.90;70.70;;;;;;5051638;28;20116;-76
2021/05/10 04:51:50;;;;;;;6.28;3.50;;;17.00;70.60;;;;;;5050860;28;20448;-76
2021/05/10 04:54:16;;;;;;;5.82;3.78;;;17.00;70.40;;;;;;5050523;28;20508;-75
2021/05/10 04:56:43;;;;;;;4.55;3.15;;;17.00;70.20;;;;;;5034225;28;20045;-76
2021/05/10 04:59:09;;;;;;;5.70;3.67;;;17.10;70.20;;;;;;5050138;28;20151;-76
2021/05/10 05:01:35;;;;;;;5.47;2.90;;;17.10;69.90;;;;;;5050084;28;20063;-77
2021/05/10 05:04:01;;;;;;;5.30;3.22;;;17.10;69.60;;;;;;5050364;28;20049;-83
2021/05/10 05:06:29;;;;;;;6.75;3.22;;;17.20;69.50;;;;;;5034045;28;20086;-77
2021/05/10 05:08:55;;;;;;;5.20;3.58;;;17.20;69.30;;;;;;5050683;28;20033;-76
2021/05/10 05:11:21;;;;;;;5.78;3.17;;;17.20;69.20;;;;;;5055253;28;20206;-75
2021/05/10 05:13:47;;;;;;;5.50;3.13;;;17.30;69.00;;;;;;5053989;28;20052;-76
2021/05/10 05:16:13;;;;;;;6.78;3.20;;;17.30;69.10;;;;;;5036581;28;20041;-75
2021/05/10 05:18:38;;;;;;;4.07;3.10;;;17.40;68.90;;;;;;5055109;28;20049;-76
2021/05/10 05:21:05;;;;;;;4.30;2.90;;;17.40;68.70;;;;;;5036772;28;20509;-81
2021/05/10 05:23:30;;;;;;;4.75;3.13;;;17.50;68.60;;;;;;5037117;28;20408;-76
2021/05/10 05:26:01;;;;;;;8.00;3.50;;;17.50;68.70;;;;;;5036663;28;20045;-77
2021/05/10 05:28:27;;;;;;;8.30;3.20;;;17.50;68.60;;;;;;5021426;28;20044;-76
2021/05/10 05:30:54;;;;;;;5.65;3.33;;;17.50;68.70;;;;;;5054115;28;20390;-76
2021/05/10 05:33:20;;;;;;;5.80;3.05;;;17.60;68.90;;;;;;5053693;28;20516;-76
2021/05/10 05:35:51;;;;;;;6.35;3.33;;;17.60;68.80;;;;;;5038134;28;20045;-77
2021/05/10 05:38:17;;;;;;;5.43;2.95;;;17.70;68.70;;;;;;5052281;28;20127;-81
2021/05/10 05:40:43;;;;;;;4.90;3.10;;;17.70;68.50;;;;;;5056012;28;20033;-82
2021/05/10 05:43:09;;;;;;;4.35;3.10;;;17.70;68.30;;;;;;5023502;28;20041;-84
2021/05/10 05:45:39;;;;;;;4.45;3.15;;;17.80;68.20;;;;;;5032623;28;20032;-77
2021/05/10 05:48:09;;;;;;;6.05;2.85;;;17.80;68.10;;;;;;5049107;28;20048;-79
2021/05/10 05:50:35;;;;;;;5.95;3.42;;;17.90;67.90;;;;;;5056785;28;20064;-78
2021/05/10 05:53:01;;;;;;;4.97;3.33;;;17.90;67.90;;;;;;5032949;28;20080;-75
2021/05/10 05:55:27;;;;;;;4.15;2.53;;;18.00;67.80;;;;;;5041414;28;20071;-77
2021/05/10 05:57:59;;;;;;;6.70;3.22;;;18.00;67.60;;;;;;5039589;28;20049;-77
2021/05/10 06:00:25;;;;;;;4.38;2.78;;;18.10;67.20;;;;;;5031185;28;20041;-76
2021/05/10 06:02:51;;;;;;;2.60;2.17;;;18.10;67.00;;;;;;5010326;28;20045;-75
2021/05/10 06:05:17;;;;;;;5.80;2.83;;;18.20;66.90;;;;;;5022277;28;20060;-78
2021/05/10 06:07:46;;;;;;;4.63;3.10;;;18.20;66.60;;;;;;5036293;28;20382;-79
2021/05/10 06:10:21;;;;;;;6.95;2.97;;;18.20;66.30;;;;;;5039354;28;20095;-80
2021/05/10 06:12:49;;;;;;;5.93;2.63;;;18.30;66.00;;;;;;5048932;28;20041;-77
2021/05/10 06:15:16;;;;;;;6.28;3.13;;;18.30;65.80;;;;;;5040017;28;20387;-77
2021/05/10 06:17:42;;;;;;;7.63;4.47;;;18.30;65.40;;;;;;5042118;28;20168;-76
2021/05/10 06:20:09;;;;;;;7.97;3.35;;;18.40;65.20;;;;;;5054321;28;20477;-78
2021/05/10 06:22:38;;;;;;;4.38;2.05;;;18.40;65.00;;;;;;5035505;28;20047;-76
2021/05/10 06:25:06;;;;;;;6.25;2.50;;;18.40;64.50;;;;;;5037288;28;20045;-77
2021/05/10 06:27:31;;;;;;;4.65;2.63;;;18.40;64.40;;;;;;5037511;28;20082;-76
2021/05/10 06:29:57;;;;;;;6.07;2.45;;;18.50;64.30;;;;;;5054285;28;20219;-76
2021/05/10 06:32:23;;;;;;;3.10;2.50;;;18.50;63.90;;;;;;5037084;28;20446;-76
2021/05/10 06:34:52;;;;;;;4.28;2.40;;;18.50;63.60;;;;;;5022057;28;20059;-80
2021/05/10 06:37:20;;;;;;;4.18;2.20;;;18.50;63.50;;;;;;5054639;28;20120;-84
2021/05/10 06:39:47;;;;;;;5.65;2.40;;;18.60;63.40;;;;;;5037002;28;20124;-74
2021/05/10 06:42:13;;;;;;;6.57;2.40;;;18.60;63.40;;;;;;5021098;28;20057;-76
2021/05/10 06:44:39;;;;;;;5.82;2.17;;;18.60;63.30;;;;;;5053590;28;20029;-76
2021/05/10 06:47:08;;;;;;;5.85;2.53;;;18.60;63.30;;;;;;5053478;28;20072;-79
2021/05/10 06:49:34;;;;;;;4.65;2.20;;;18.70;63.10;;;;;;5035950;28;20041;-76
2021/05/10 06:52:01;;;;;;;5.55;2.17;;;18.70;63.10;;;;;;5053148;28;20127;-76
2021/05/10 06:54:27;;;;;;;4.65;2.35;;;18.80;63.10;;;;;;5053185;28;20044;-75
2021/05/10 06:56:52;;;;;;;3.92;2.17;;;18.90;62.90;;;;;;5038089;28;20049;-78
2021/05/10 06:59:18;;;;;;;4.97;2.20;;;18.80;62.70;;;;;;5052999;28;20041;-84
2021/05/10 07:01:44;;;;;;;5.28;1.73;;;18.90;62.40;;;;;;5053367;28;20048;-75
2021/05/10 07:04:12;;;;;;;3.03;1.98;;;19.00;62.20;;;;;;5054370;28;20402;-77
2021/05/10 07:06:41;;;;;;;4.32;1.50;;;19.00;62.20;;;;;;5036043;28;20056;-77
2021/05/10 07:09:07;;;;;;;2.88;1.40;;;19.00;62.00;;;;;;5020670;28;20398;-76
2021/05/10 07:11:35;;;;;;;5.68;2.03;;;19.00;61.70;;;;;;5019621;28;20053;-77
2021/05/10 07:14:01;;;;;;;6.90;1.95;;;19.10;61.70;;;;;;5036545;28;20090;-76
2021/05/10 07:16:31;;;;;;;3.05;1.88;;;19.10;61.90;;;;;;5036174;28;20045;-76
2021/05/10 07:18:57;;;;;;;5.03;2.00;;;19.10;61.70;;;;;;5053549;28;20152;-75
2021/05/10 07:21:25;;;;;;;2.42;1.73;;;19.10;61.90;;;;;;5036509;28;20049;-79
2021/05/10 07:23:51;;;;;;;3.35;1.73;;;19.10;61.90;;;;;;5037212;28;20052;-76
2021/05/10 07:26:17;;;;;;;4.18;2.00;;;19.10;62.30;;;;;;5054051;28;20049;-76
2021/05/10 07:28:45;;;;;;;5.18;2.13;;;19.10;62.40;;;;;;5036708;28;20056;-74
2021/05/10 07:31:11;;;;;;;4.78;2.00;;;19.10;62.60;;;;;;5035697;28;20048;-75
2021/05/10 07:33:37;;;;;;;3.40;1.98;;;19.10;63.00;;;;;;5034516;28;20052;-77
2021/05/10 07:36:03;;;;;;;4.07;2.00;;;19.10;63.10;;;;;;5052377;28;20058;-77
2021/05/10 07:38:29;;;;;;;3.80;1.98;;;19.10;63.40;;;;;;5034882;28;20084;-76
2021/05/10 07:40:55;;;;;;;3.30;1.70;;;19.20;63.60;;;;;;5036013;28;20064;-74
2021/05/10 07:43:21;;;;;;;4.78;1.77;;;19.20;63.70;;;;;;5036032;28;20048;-78
2021/05/10 07:45:50;;;;;;;2.42;1.10;;;19.20;63.50;;;;;;5052607;28;20098;-75
2021/05/10 07:48:17;;;;;;;1.40;1.05;;;19.20;63.20;;;;;;5052458;28;20041;-75
2021/05/10 07:50:42;;;;;;;3.00;1.23;;;19.20;63.00;;;;;;5053468;28;20056;-76
2021/05/10 07:53:09;;;;;;;1.98;1.00;;;19.20;62.80;;;;;;5053164;28;20049;-76
2021/05/10 07:55:37;;;;;;;1.77;0.80;;;19.20;62.40;;;;;;5051833;28;20049;-80
2021/05/10 07:58:03;;;;;;;2.92;1.05;;;19.20;62.30;;;;;;5053318;28;20060;-77
2021/05/10 08:00:36;;;;;;;2.85;0.80;;;19.20;62.30;;;;;;5036596;28;20095;-85
2021/05/10 08:03:11;;;;;;;;;;;19.20;62.30;;;;;;5053870;28;20053;-75
2021/05/10 08:05:39;;;;;;;3.22;1.30;;;19.30;62.30;;;;;;5019771;28;19932;-76
2021/05/10 08:08:09;;;;;;;2.95;1.30;;;19.30;62.40;;;;;;5052244;28;20060;-76
2021/05/10 08:10:35;;;;;;;2.95;1.20;;;19.30;62.20;;;;;;5035575;28;20110;-77
2021/05/10 08:13:01;;;;;;;2.05;1.10;;;19.40;62.20;;;;;;5053394;28;20115;-75
2021/05/10 08:15:35;;;;;;;2.17;1.15;;;19.40;62.90;;;;;;5035831;28;20039;-75
2021/05/10 08:18:00;;;;;;;3.80;1.25;;;19.50;62.30;;;;;;5035901;28;20064;-75
2021/05/10 08:20:26;;;;;;;1.20;0.98;;;19.50;62.20;;;;;;5052039;28;20478;-77
2021/05/10 08:22:52;;;;;;;1.63;1.25;;;19.50;62.00;;;;;;5052343;28;20037;-77
2021/05/10 08:25:18;;;;;;;2.42;2.00;;;19.50;61.90;;;;;;5033814;28;20052;-75
2021/05/10 08:27:43;;;;;;;2.35;1.35;;;19.50;62.00;;;;;;5052251;28;20099;-75
2021/05/10 08:30:11;;;;;;;1.80;1.23;;;19.50;62.10;;;;;;5051631;28;20075;-75
2021/05/10 08:32:37;;;;;;;3.10;1.17;;;19.50;62.20;;;;;;5050490;28;20060;-78
2021/05/10 08:35:03;;;;;;;2.53;1.33;;;19.50;62.00;;;;;;5034690;28;20405;-74
2021/05/10 08:37:32;;;;;;;3.78;1.65;;;19.50;62.10;;;;;;5052031;28;20047;-76
2021/05/10 08:39:58;;;;;;;2.75;1.50;;;19.60;62.30;;;;;;5034107;28;20099;-73
2021/05/10 08:42:24;;;;;;;2.22;1.27;;;19.60;62.30;;;;;;5052419;28;20037;-76
2021/05/10 08:44:50;;;;;;;2.08;1.13;;;19.60;62.60;;;;;;5038217;28;20438;-77
2021/05/10 08:47:19;;;;;;;2.00;1.48;;;19.70;62.20;;;;;;5055274;28;20088;-77
2021/05/10 08:49:47;;;;;;;3.47;1.70;;;19.70;62.10;;;;;;5055545;28;20045;-74
2021/05/10 08:52:13;;;;;;;2.30;1.27;;;19.70;61.80;;;;;;5055488;28;20044;-76
2021/05/10 08:54:39;;;;;;;2.78;1.30;;;19.80;61.50;;;;;;5038565;28;20049;-82
2021/05/10 08:57:05;;;;;;;1.92;1.45;;;19.80;61.20;;;;;;5055500;28;20478;-77
2021/05/10 08:59:31;;;;;;;2.25;1.40;;;19.80;61.20;;;;;;5055417;28;20541;-76
2021/05/10 09:01:59;;;;;;;2.90;1.80;;;19.80;61.00;;;;;;5055261;28;20105;-76
2021/05/10 09:04:31;;;;;;;4.47;1.77;;;19.80;61.10;;;;;;5038378;28;20437;-75
2021/05/10 09:07:09;;;;;;;4.53;1.85;;;19.90;60.70;;;;;;5037880;28;20080;-76
2021/05/10 09:09:55;;;;;;;4.00;1.60;;;20.00;60.60;;;;;;5038348;28;20451;-77
2021/05/10 09:12:22;;;;;;;1.63;1.42;;;20.00;60.30;;;;;;5054802;28;20064;-76
2021/05/10 09:14:49;;;;;;;2.80;1.58;;;20.00;60.40;;;;;;5038355;28;20081;-77
2021/05/10 09:17:18;;;;;;;5.00;1.77;;;19.90;60.10;;;;;;5055025;28;20397;-75
2021/05/10 09:19:49;;;;;;;2.65;1.70;;;19.90;60.10;;;;;;5037622;28;20049;-79
2021/05/10 09:22:15;;;;;;;2.85;1.73;;;19.90;60.10;;;;;;5037672;28;20053;-78
2021/05/10 09:24:45;;;;;;;4.75;1.80;;;20.00;60.20;;;;;;5037908;28;20063;-78
2021/05/10 09:27:27;;;;;;;3.75;1.80;;;20.00;60.20;;;;;;5038645;28;20053;-76
2021/05/10 09:30:15;;;;;;;2.20;1.90;;;20.00;60.20;;;;;;5070328;28;20375;-75
2021/05/10 09:32:45;;;;;;;2.53;1.58;;;20.10;60.20;;;;;;5053999;28;20067;-77
2021/05/10 09:35:28;;;;;;;3.38;1.90;;;20.10;60.10;;;;;;5005535;28;20063;-76
2021/05/10 09:37:59;;;;;;;3.45;1.60;;;20.10;60.00;;;;;;5038501;28;20063;-77
2021/05/10 09:40:28;;;;;;;3.50;1.63;;;20.20;60.20;;;;;;5054604;28;20520;-77
2021/05/10 09:42:55;;;;;;;2.88;1.90;;;20.20;60.00;;;;;;5036083;28;20060;-76
2021/05/10 09:45:35;;;;;;;2.88;1.60;;;20.20;60.00;;;;;;5018952;28;20080;-78
2021/05/10 09:48:11;;;;;;;3.75;1.98;;;20.20;59.80;;;;;;5034973;28;20544;-76
2021/05/10 09:50:42;;;;;;;2.22;1.80;;;20.20;59.70;;;;;;5052454;28;20496;-76
2021/05/10 09:53:11;;;;;;;3.50;1.70;;;20.10;59.80;;;;;;5034959;28;20045;-77
2021/05/10 09:55:43;;;;;;;3.35;2.10;;;20.20;59.90;;;;;;5035453;28;20041;-76
2021/05/10 09:58:09;;;;;;;2.55;1.50;;;20.20;59.90;;;;;;5050939;28;20065;-77
2021/05/10 10:00:38;;;;;;;2.17;1.50;;;20.10;60.10;;;;;;5052763;28;20158;-76
2021/05/10 10:03:05;;;;;;;2.75;1.50;;;20.00;59.50;;;;;;5035397;28;20036;-80
2021/05/10 10:05:38;;;;;;;2.33;1.25;;;19.80;59.00;;;;;;5035325;28;20462;-77
2021/05/10 10:08:04;;;;;;;3.42;1.50;;;19.80;58.60;;;;;;5029967;28;20469;-74
2021/05/10 10:10:33;;;;;;;2.42;1.45;;;19.60;58.80;;;;;;5034427;28;20159;-76
2021/05/10 10:12:58;;;;;;;3.50;1.40;;;19.50;58.80;;;;;;5045805;28;20049;-78
2021/05/10 10:15:24;;;;;;;2.75;1.30;;;19.40;59.00;;;;;;5051133;28;20088;-79
2021/05/10 10:17:50;;;;;;;2.80;1.60;;;19.40;59.20;;;;;;5051815;28;20048;-83
2021/05/10 10:20:16;;;;;;;1.73;1.13;;;19.30;59.10;;;;;;5051370;28;20041;-78
2021/05/10 10:22:42;;;;;;;2.40;1.25;;;19.30;59.10;;;;;;5018759;28;20428;-80
2021/05/10 10:25:11;;;;;;;4.15;1.45;;;19.20;59.40;;;;;;5050135;28;20075;-77
2021/05/10 10:27:37;;;;;;;2.95;1.50;;;19.20;59.50;;;;;;5051321;28;20045;-77
2021/05/10 10:30:03;;;;;;;2.58;1.33;;;19.10;59.30;;;;;;5033829;28;20393;-77
2021/05/10 10:32:29;;;;;;;2.83;1.50;;;19.10;59.20;;;;;;5035336;28;20389;-75
2021/05/10 10:34:54;;;;;;;2.80;1.20;;;19.10;59.30;;;;;;5052097;28;20418;-86
2021/05/10 10:37:20;;;;;;;2.03;1.40;;;19.10;59.50;;;;;;5034088;28;20060;-75
2021/05/10 10:39:50;;;;;;;3.45;1.40;;;19.00;59.50;;;;;;5050477;28;20081;-76
2021/05/10 10:42:34;;;;;;;2.45;1.40;;;19.00;59.50;;;;;;5050534;28;20028;-76
2021/05/10 10:45:01;;;;;;;2.70;1.35;;;19.00;59.90;;;;;;5049852;28;20045;-77
2021/05/10 10:47:57;;;;;;;2.15;1.38;;;18.90;60.20;;;;;;5051139;28;20052;-77
2021/05/10 10:50:24;;;;;;;2.97;1.50;;;18.80;60.40;;;;;;5036759;28;20041;-76
2021/05/10 10:52:57;;;;;;;1.83;1.30;;;18.80;60.80;;;;;;5051951;28;20049;-77
2021/05/10 10:55:43;;;;;;;2.38;1.20;;;18.70;60.90;;;;;;5067539;28;20037;-77
2021/05/10 10:58:15;;;;;;;3.42;1.58;;;18.70;61.10;;;;;;5049989;28;20048;-78
2021/05/10 11:00:57;;;;;;;3.35;1.52;;;18.70;61.20;;;;;;5050395;28;20405;-77
2021/05/10 11:03:23;;;;;;;2.40;1.40;;;18.60;61.10;;;;;;5050275;28;20398;-80
2021/05/10 11:05:49;;;;;;;3.25;1.63;;;18.60;61.20;;;;;;5049827;28;20049;-79
2021/05/10 11:08:14;;;;;;;2.58;1.55;;;18.60;61.30;;;;;;5033741;28;20385;-79
2021/05/10 11:10:55;;;;;;;2.03;1.55;;;18.50;61.10;;;;;;5033613;28;20041;-79
2021/05/10 11:13:27;;;;;;;2.88;1.50;;;18.50;61.20;;;;;;5039489;28;20122;-77
2021/05/10 11:15:59;;;;;;;3.05;1.20;;;18.50;61.30;;;;;;5033667;28;20053;-78
2021/05/10 11:18:45;;;;;;;2.60;1.40;;;18.50;61.40;;;;;;5033041;28;20037;-78
2021/05/10 11:21:23;;;;;;;2.35;1.42;;;18.40;61.30;;;;;;5031194;28;20049;-76
2021/05/10 11:23:50;;;;;;;3.50;1.80;;;18.40;61.50;;;;;;5031687;28;20523;-77
2021/05/10 11:26:41;;;;;;;4.13;2.15;;;18.40;61.40;;;;;;5032067;28;20041;-77
2021/05/10 11:29:08;;;;;;;2.78;1.52;;;18.50;61.60;;;;;;5047325;28;20060;-77
2021/05/10 11:31:42;;;;;;;3.50;1.52;;;18.50;61.60;;;;;;5049680;28;20040;-76
2021/05/10 11:34:12;;;;;;;2.88;1.70;;;18.40;61.50;;;;;;5049378;28;20049;-76
2021/05/10 11:36:51;;;;;;;2.28;2.05;;;18.40;61.60;;;;;;5049831;28;20045;-78
2021/05/10 11:39:42;;;;;;;3.22;2.05;;;18.50;61.80;;;;;;5033527;28;20061;-80
2021/05/10 11:42:12;;;;;;;2.10;1.67;;;18.50;61.90;;;;;;5046622;28;20478;-79
2021/05/10 11:44:39;;;;;;;4.10;2.45;;;18.50;61.90;;;;;;5049168;28;20048;-77
2021/05/10 11:47:05;;;;;;;3.08;2.40;;;18.40;61.90;;;;;;5049681;28;20140;-82
2021/05/10 11:49:35;;;;;;;5.38;2.60;;;18.40;62.00;;;;;;5032880;28;20453;-79
2021/05/10 11:52:11;;;;;;;4.60;2.50;;;18.40;62.10;;;;;;5050898;28;20552;-77
2021/05/10 11:54:47;;;;;;;3.47;2.40;;;18.40;62.20;;;;;;5049757;28;20114;-78
2021/05/10 11:57:15;;;;;;;5.15;2.50;;;18.40;62.30;;;;;;5032162;28;20128;-78
2021/05/10 11:59:47;;;;;;;4.20;2.67;;;18.30;62.20;;;;;;5049409;28;20051;-78
2021/05/10 12:02:14;;;;;;;5.43;2.90;;;18.30;62.20;;;;;;5032883;28;20056;-77
2021/05/10 12:04:50;;;;;;;3.97;2.60;;;18.30;62.40;;;;;;5033155;28;20041;-77
2021/05/10 12:07:17;;;;;;;5.82;2.95;;;18.20;62.30;;;;;;5044321;28;20115;-77
2021/05/10 12:09:57;;;;;;;4.10;2.40;;;18.20;62.20;;;;;;5050137;28;20045;-77
2021/05/10 12:12:28;;;;;;;7.10;1.90;;;18.20;62.10;;;;;;5047888;28;20496;-79
2021/05/10 12:14:56;;;;;;;6.28;2.08;;;18.10;62.20;;;;;;5048856;28;20044;-77
2021/05/10 12:17:24;;;;;;;4.07;2.20;;;18.00;62.40;;;;;;5033149;28;20037;-77
2021/05/10 12:20:04;;;;;;;4.60;2.13;;;17.90;62.10;;;;;;5037726;28;20071;-82
2021/05/10 12:22:40;;;;;;;2.83;1.65;;;17.90;62.20;;;;;;5053747;28;20196;-79
2021/05/10 12:25:18;;;;;;;5.30;1.85;;;17.80;62.10;;;;;;5037118;28;20045;-77
2021/05/10 12:27:48;;;;;;;5.22;1.60;;;17.80;62.20;;;;;;5036510;28;20053;-79
2021/05/10 12:30:29;;;;;;;5.43;1.75;;;17.80;62.30;;;;;;5035565;28;20070;-87
2021/05/10 12:32:57;;;;;;;4.63;1.83;;;17.80;62.40;;;;;;5036986;28;20401;-79
2021/05/10 12:35:28;;;;;;;3.65;1.70;;;17.70;62.30;;;;;;5036205;28;20068;-79
2021/05/10 12:37:55;;;;;;;3.75;1.80;;;17.70;62.50;;;;;;5037304;28;20120;-79
2021/05/10 12:40:42;;;;;;;4.60;1.88;;;17.60;62.60;;;;;;5035848;28;20131;-79
2021/05/10 12:43:11;;;;;;;4.18;1.80;;;17.60;62.80;;;;;;5052044;28;20086;-77
2021/05/10 12:45:41;;;;;;;4.22;1.90;;;17.60;62.90;;;;;;5035651;28;20056;-82
2021/05/10 12:48:29;;;;;;;5.63;1.80;;;17.60;63.00;;;;;;5036690;28;20052;-80
2021/05/10 12:51:04;;;;;;;3.90;1.80;;;17.50;63.00;;;;;;5052220;28;20033;-78
2021/05/10 12:53:38;;;;;;;4.05;1.90;;;17.50;63.00;;;;;;5052124;28;20053;-78
2021/05/10 12:56:10;;;;;;;3.78;2.17;;;17.50;63.10;;;;;;5036558;28;20045;-77